Skip Navigation Links Skip Navigation Links

Current Weather

Detroit City, Detroit

For information only: do not use for flight planning or navigation.
Latest weather
Observation time Thursday, October 17, 2019 12:53 AM EDT
Local time Thursday, October 17, 2019 1:53 AM EDT
Flight conditions Visual Meteorological Conditions
Winds
Wind direction Northwest (310°)
Wind speed 14 mph
Wind gusting to 25 mph
Peak wind speed 32 mph, 12:12 AM
Peak wind direction West-Northwest (300°)
Visibility 10 mi.
Sky condition
Ceiling 3,300 ft. overcast
Cloud layer overcast 3,300 ft.
Temperature 47°F
Dewpoint 37°F
Altimeter 29.76 in.Hg
Derived measurements
Relative humidity 68%
Wind chill 41°F
Density altitude 119 ft.
Sea-level pressure 29.77 in.Hg
Climate data
Temperature minimum, last 24 hours 46°F
Temperature maximum, last 24 hours 63°F
Remarks
Automated weather observing station with precipitation discriminator.
METAR KDET 170453Z 31012G22KT 10SM OVC033 08/03 A2976 RMK AO2 PK WND 30028/0412 SLP080 T00830028 401720078

Settings

Location code

InnerDrive.Weather 4.0.6770.0 Release CLR 4.0.30319.42000
Copyright ©2018 Inner Drive Technology. All rights reserved. Portions Copyright ©1986-2018 David Braverman.

Find weather

Site navigation


Skip Navigation Links

Place info

Page info

PayPal - The safer, easier way to pay online!

Return home.

Copyright ©2019 Inner Drive Technology. Purveyors of fine, hand-crafted computer software. Page printed 2019-10-17T05:53:50 UTC.